Flight Track Log - Related Links

Times and Time Zones

All times are in EDT time to prevent confusion due to time zone crossing. See the DAL1981 flight status page for this flight to view local times or setup timezone preferences in your user account.

Time Position Orientation Groundspeed Altitude Reporting Facility
EDT Latitude Longitude Course Direction KTS MPH feet Rate Location/Type
Tue 06:13:39 AM 42.7236 -73.8081 180° South 151 174 1,400  Level Boston Center
Tue 06:14:46 AM 42.6689 -73.8492 209° Southwest 248 285 3,900 2,284 Climbing Boston Center
Tue 06:15:00 AM 42.5848 -74.0321 200° South  Level Estimated
Tue 06:15:53 AM 42.7053 -73.9292 302° West 286 329 6,500  Level Boston Center
Tue 06:16:00 AM 42.5024 -74.1467 200° South  Level Estimated
Tue 06:16:53 AM 42.7522 -74.0064 310° West 291 335 9,500  Level Boston Center
Tue 06:17:00 AM 42.4200 -74.2610 198° South  Level Estimated
Tue 06:17:53 AM 42.7592 -74.1058 275° West 260 299 11,700  Level Boston Center
Tue 06:18:00 AM 42.3374 -74.3751 180° South  Level Estimated
Tue 06:18:53 AM 42.7550 -74.2356 268° West 296 341 14,700  Level Boston Center
Tue 06:19:00 AM 42.2547 -74.4888 180° South  Level Estimated
Tue 06:19:53 AM 42.7264 -74.3308 248° West 307 353 17,000  Level Boston Center
Tue 06:20:53 AM 42.6325 -74.3422 185° South 287 330 19,200 1,950 Climbing Boston Center
Tue 06:21:53 AM 42.5378 -74.2689 150° Southeast 319 367 20,900 1,850 Climbing Boston Center
Tue 06:22:53 AM 42.4389 -74.1928 150° Southeast 355 409 22,900 1,455 Climbing Boston Center
Tue 06:24:05 AM 42.3339 -74.1083 149° Southeast 401 461 24,100 1,318 Climbing Boston Center
Tue 06:25:05 AM 42.1786 -74.0342 161° South 447 514 25,800 1,700 Climbing Boston Center
Tue 06:26:05 AM 42.0494 -74.0422 183° South 447 514 27,500 2,200 Climbing Boston Center
Tue 06:27:05 AM 41.9247 -74.0167 171° South 453 521 30,200 2,050 Climbing Boston Center
Tue 06:28:05 AM 41.8344 -73.9058 138° Southeast 427 491 31,600 1,200 Climbing Boston Center
Tue 06:29:05 AM 41.7567 -73.8008 135° Southeast 427 491 32,600 700 Climbing Boston Center
Tue 06:30:05 AM 41.6442 -73.7792 172° South 396 456 33,000 651 Climbing Boston Center
Tue 06:31:51 AM 41.4450 -73.9042 205° Southwest 411 473 34,400 867 Climbing New York Center
Tue 06:32:51 AM 41.3475 -73.9658 205° Southwest 434 499 35,400 787 Climbing New York Center
Tue 06:33:53 AM 41.2414 -74.0325 205° Southwest 434 499 36,000 300 Climbing New York Center
Tue 06:34:51 AM 41.1417 -74.1047 209° Southwest 422 486 36,000  Level New York Center
Tue 06:35:52 AM 41.0633 -74.2192 228° Southwest 413 475 36,000  Level New York Center
Tue 06:36:53 AM 40.9933 -74.3339 231° Southwest 408 470 36,000  Level New York Center
Tue 06:37:52 AM 40.9189 -74.4508 230° Southwest 413 475 36,000  Level New York Center
Tue 06:38:52 AM 40.8461 -74.5731 232° Southwest 425 489 36,000  Level New York Center
Tue 06:39:52 AM 40.7714 -74.6922 230° Southwest 425 489 36,000  Level New York Center
Tue 06:40:51 AM 40.6967 -74.8111 230° Southwest 432 497 36,000  Level New York Center
Tue 06:41:52 AM 40.6239 -74.9297 231° Southwest 427 491 36,000  Level New York Center
Tue 06:42:52 AM 40.5508 -75.0483 231° Southwest 427 491 36,000  Level New York Center
Tue 06:43:53 AM 40.4756 -75.1664 230° Southwest 427 491 36,000  Level New York Center
Tue 06:44:53 AM 40.4003 -75.2869 231° Southwest 433 498 36,000  Level New York Center
Tue 06:45:52 AM 40.3247 -75.4044 230° Southwest 433 498 36,000  Level New York Center
Tue 06:46:53 AM 40.2492 -75.5219 230° Southwest 433 498 36,000  Level New York Center
Tue 06:47:51 AM 40.1814 -75.6503 235° Southwest 433 498 36,000  Level New York Center
Tue 06:48:52 AM 40.1133 -75.7814 236° Southwest 438 504 36,000  Level New York Center
Tue 06:49:52 AM 40.0494 -75.9094 237° Southwest 438 504 36,000  Level New York Center
Tue 06:50:53 AM 39.9856 -76.0350 236° Southwest 428 493 36,000  Level New York Center
Tue 06:53:24 AM 39.8175 -76.3642 236° Southwest 438 504 36,000  Level Washington Center
Tue 06:54:21 AM 39.7500 -76.4931 236° Southwest 432 497 36,000  Level Washington Center
Tue 06:55:22 AM 39.6822 -76.6189 235° Southwest 432 497 36,000  Level Washington Center
Tue 06:56:23 AM 39.6164 -76.7444 236° Southwest 432 497 36,000  Level Washington Center
Tue 06:57:24 AM 39.5486 -76.8725 236° Southwest 432 497 36,000  Level Washington Center
Tue 06:58:23 AM 39.4783 -76.9950 233° Southwest 432 497 36,000  Level Washington Center
Tue 06:59:24 AM 39.3875 -77.0925 220° Southwest 432 497 36,000  Level Washington Center
Tue 07:00:22 AM 39.2906 -77.1925 219° Southwest 432 497 36,000  Level Washington Center
Tue 07:01:23 AM 39.2017 -77.2869 219° Southwest 437 503 36,000  Level Washington Center
Tue 07:02:24 AM 39.1106 -77.3811 219° Southwest 432 497 36,000  Level Washington Center
Tue 07:03:24 AM 39.0194 -77.4778 220° Southwest 427 491 36,000  Level Washington Center
Tue 07:04:22 AM 38.9136 -77.5872 219° Southwest 435 501 36,000  Level Washington Center
Tue 07:05:22 AM 38.8328 -77.6728 220° Southwest 435 501 36,000  Level Washington Center
Tue 07:06:23 AM 38.7247 -77.7817 218° Southwest 444 511 36,000  Level Washington Center
Tue 07:07:23 AM 38.6372 -77.8775 221° Southwest 449 517 36,000  Level Washington Center
Tue 07:08:21 AM 38.5642 -77.9972 232° Southwest 436 502 36,000  Level Washington Center
Tue 07:09:22 AM 38.4947 -78.1225 235° Southwest 436 502 36,000  Level Washington Center
Tue 07:10:23 AM 38.4233 -78.2444 233° Southwest 436 502 36,000  Level Washington Center
Tue 07:11:22 AM 38.3519 -78.3636 233° Southwest 441 507 36,000  Level Washington Center
Tue 07:12:22 AM 38.2800 -78.4881 234° Southwest 441 507 36,000  Level Washington Center
Tue 07:13:23 AM 38.2103 -78.6094 234° Southwest 441 507 36,000  Level Washington Center
Tue 07:14:23 AM 38.1364 -78.7306 232° Southwest 441 507 36,000  Level Washington Center
Tue 07:15:24 AM 38.0622 -78.8542 233° Southwest 446 513 36,000  Level Washington Center
Tue 07:16:22 AM 37.9944 -78.9644 232° Southwest 446 513 36,000  Level Washington Center
Tue 07:17:23 AM 37.9200 -79.0850 232° Southwest 446 513 36,000  Level Washington Center
Tue 07:18:24 AM 37.8375 -79.2019 228° Southwest 446 513 36,000  Level Washington Center
Tue 07:19:22 AM 37.7547 -79.3164 228° Southwest 446 513 36,000  Level Washington Center
Tue 07:20:23 AM 37.6697 -79.4303 227° Southwest 446 513 36,000  Level Washington Center
Tue 07:21:21 AM 37.5781 -79.5567 228° Southwest 451 519 36,000  Level Washington Center
Tue 07:22:24 AM 37.5014 -79.6600 227° Southwest 456 525 36,000  Level Washington Center
Tue 07:23:22 AM 37.4139 -79.7833 228° Southwest 461 531 36,000  Level Washington Center
Tue 07:24:22 AM 37.3175 -79.9114 227° Southwest 461 531 36,000  Level Washington Center
Tue 07:25:56 AM 37.1814 -80.0975 227° Southwest 453 521 36,000  Level Atlanta Center
Tue 07:26:56 AM 37.0956 -80.2136 227° Southwest 458 527 36,000  Level Atlanta Center
Tue 07:27:56 AM 37.0075 -80.3325 227° Southwest 458 527 36,000  Level Atlanta Center
Tue 07:28:56 AM 36.9314 -80.4397 228° Southwest 458 527 36,000  Level Atlanta Center
Tue 07:29:56 AM 36.8431 -80.5553 226° Southwest 458 527 36,000  Level Atlanta Center
Tue 07:30:56 AM 36.7525 -80.6733 226° Southwest 463 533 36,000  Level Atlanta Center
Tue 07:31:56 AM 36.6578 -80.7964 226° Southwest 458 527 36,000  Level Atlanta Center
Tue 07:32:56 AM 36.5692 -80.9161 227° Southwest 463 533 36,000  Level Atlanta Center
Tue 07:33:56 AM 36.4803 -81.0308 226° Southwest 463 533 36,000  Level Atlanta Center
Tue 07:34:56 AM 36.3914 -81.1475 227° Southwest 463 533 36,000  Level Atlanta Center
Tue 07:35:56 AM 36.3042 -81.2639 227° Southwest 458 527 36,000  Level Atlanta Center
Tue 07:36:56 AM 36.2150 -81.3778 226° Southwest 464 534 36,000  Level Atlanta Center
Tue 07:37:56 AM 36.1258 -81.4939 226° Southwest 464 534 36,000  Level Atlanta Center
Tue 07:38:56 AM 36.0344 -81.6147 227° Southwest 469 540 36,000  Level Atlanta Center
Tue 07:39:56 AM 35.9428 -81.7331 226° Southwest 469 540 36,000  Level Atlanta Center
Tue 07:40:56 AM 35.8531 -81.8483 226° Southwest 469 540 36,000 -500 Level Atlanta Center
Tue 07:41:56 AM 35.7633 -81.9606 225° Southwest 464 534 35,000 -500 Descending Atlanta Center
Tue 07:42:56 AM 35.6714 -82.0781 226° Southwest 464 534 35,000  Level Atlanta Center
Tue 07:43:56 AM 35.5814 -82.1950 227° Southwest 464 534 35,000  Level Atlanta Center
Tue 07:44:56 AM 35.4911 -82.3094 226° Southwest 464 534 35,000  Level Atlanta Center
Tue 07:45:56 AM 35.4111 -82.4106 226° Southwest 464 534 35,000 -750 Level Atlanta Center
Tue 07:46:56 AM 35.3189 -82.5242 225° Southwest 464 534 33,500 -1,300 Descending Atlanta Center
Tue 07:47:56 AM 35.2181 -82.6533 226° Southwest 464 534 32,400 -900 Descending Atlanta Center
Tue 07:48:56 AM 35.1275 -82.7639 225° Southwest 459 528 31,700 -850 Descending Atlanta Center
Tue 07:49:56 AM 35.0303 -82.8669 221° Southwest 466 536 30,700 -1,100 Descending Atlanta Center
Tue 07:50:56 AM 34.9311 -82.9722 221° Southwest 471 542 29,500 -1,150 Descending Atlanta Center
Tue 07:51:56 AM 34.8297 -83.0697 218° Southwest 471 542 28,400 -1,300 Descending Atlanta Center
Tue 07:52:56 AM 34.7344 -83.1769 223° Southwest 471 542 26,900 -1,500 Descending Atlanta Center
Tue 07:53:56 AM 34.6331 -83.2814 220° Southwest 477 549 25,400 -2,150 Descending Atlanta Center
Tue 07:54:56 AM 34.5356 -83.3806 220° Southwest 472 543 22,600 -2,600 Descending Atlanta Center
Tue 07:55:56 AM 34.4442 -83.4772 221° Southwest 455 524 20,200 -2,450 Descending Atlanta Center
Tue 07:56:56 AM 34.3547 -83.5683 220° Southwest 437 503 17,700 -2,450 Descending Atlanta Center
Tue 07:57:56 AM 34.2800 -83.6467 221° Southwest 416 479 15,300 -2,350 Descending Atlanta Center
Tue 07:58:56 AM 34.1967 -83.7325 220° Southwest 407 468 13,000 -1,650 Descending Atlanta Center
Tue 07:59:56 AM 34.1156 -83.8131 219° Southwest 390 449 12,000 -744 Descending Atlanta Center
Tue 08:00:57 AM 34.0333 -83.9000 221° Southwest 374 430 11,500 -887 Descending Atlanta TRACON
Tue 08:01:51 AM 33.9500 -83.9500 206° Southwest 376 433 10,300 -756 Descending Atlanta TRACON
Tue 08:02:56 AM 33.8403 -83.9664 187° South 360 414 10,000 -768 Descending Atlanta Center
Tue 08:03:56 AM 33.7608 -83.9839 190° South 333 383 8,700 -1,600 Descending Atlanta Center
Tue 08:04:56 AM 33.6858 -84.0064 194° South 297 342 6,800 -1,350 Descending Atlanta Center
Tue 08:05:56 AM 33.6397 -84.0539 221° Southwest 219 252 6,000 -500 Descending Atlanta Center
Tue 08:06:56 AM 33.6314 -84.1136 261° West 191 220 5,800 -557 Descending Atlanta Center
Tue 08:07:33 AM 33.6333 -84.1500 274° West 190 219 5,100 -1,052 Descending Atlanta TRACON
Tue 08:08:33 AM 33.6333 -84.2167 270° West 190 219 4,100 -1,000 Descending Atlanta TRACON
Tue 08:09:27 AM 33.6333 -84.2833 270° West 195 224 3,200 -1,000 Descending Atlanta TRACON

Login

Don't have an account? Register now (free) for customized features, flight alerts, and more!